Sutherland, Virginia
Current Conditions -  °F | °C
As of 1:35 AM on Tuesday 21 Oct 2014 (Local Time) from KPTB Reporting Station
Overcast Overcast  
Wind Chill: 54°   Ceiling: 10000
Heat Index: 54°   Visibility: 10mi
Dew Point: 45°   Wind: 0mph
Humidity: 73%   Direction: NA
Pressure: 29.95"   Gusts: NA
Location:  37.2°N, 77.54°W
Report Text: KPTB 210535Z AUTO 00000KT 10SM SCT080 OVC100 12/07 A2995 RMK AO2 T01200073
Loading
Personal Weather Stations






























Interactive Weather Map
Tropical Storm Tracking
New forecast layout! Learn more

10-Day Weather Forecast

Advertisements
Track Severe Weather on mobile